Time;durP1;ratioP1;P1;durP2;ratioP2;P2;SDS_P1;SDS_P2;PMS_P1;PMS_P2;Temp;Humidity;BMP_temperature;BMP_pressure;BME280_temperature;BME280_humidity;BME280_pressure;Samples;Min_cycle;Max_cycle;Signal;HPM_P1;HPM_P2
2022/03/10 00:00:20;;;;;;;10.57;7.72;;;;;;;;;;4991239;28;20049;-78
2022/03/10 00:02:45;;;;;;;9.63;8.45;;;;;;;;;;4991126;28;20049;-78
2022/03/10 00:05:11;;;;;;;11.23;8.73;;;;;;;;;;4990878;28;20065;-78
2022/03/10 00:07:37;;;;;;;9.30;7.75;;;;;;;;;;4958540;28;20417;-78
2022/03/10 00:10:03;;;;;;;10.32;7.75;;;;;;;;;;4991132;28;20053;-78
2022/03/10 00:12:29;;;;;;;9.68;7.70;;;;;;;;;;5006901;28;20041;-78
2022/03/10 00:14:54;;;;;;;10.95;8.05;;;;;;;;;;4974723;28;20058;-78
2022/03/10 00:17:20;;;;;;;9.40;7.70;;;;;;;;;;4990737;28;20042;-78
2022/03/10 00:19:45;;;;;;;8.05;6.78;;;;;;;;;;4990840;28;20162;-78
2022/03/10 00:22:11;;;;;;;8.35;7.07;;;;;;;;;;4958557;28;20416;-78
2022/03/10 00:24:38;;;;;;;10.30;7.68;;;;;;;;;;4991118;28;20042;-78
2022/03/10 00:27:04;;;;;;;9.27;7.53;;;;;;;;;;4977909;28;20039;-79
2022/03/10 00:29:30;;;;;;;8.75;7.28;;;;;;;;;;4994991;28;20425;-78
2022/03/10 00:31:55;;;;;;;8.93;7.47;;;;;;;;;;4994879;28;20038;-79
2022/03/10 00:34:20;;;;;;;8.70;7.55;;;;;;;;;;4997707;28;20037;-78
2022/03/10 00:36:46;;;;;;;9.35;7.07;;;;;;;;;;4997767;28;20424;-78
2022/03/10 00:39:12;;;;;;;8.20;7.30;;;;;;;;;;4997660;28;20077;-78
2022/03/10 00:41:37;;;;;;;8.25;7.18;;;;;;;;;;4981696;28;20042;-78
2022/03/10 00:44:03;;;;;;;8.30;6.70;;;;;;;;;;5011019;28;20440;-78
2022/03/10 00:46:28;;;;;;;7.80;6.75;;;;;;;;;;4978328;28;20468;-78
2022/03/10 00:48:54;;;;;;;9.30;7.13;;;;;;;;;;4978380;28;20038;-78
2022/03/10 00:51:19;;;;;;;9.98;7.53;;;;;;;;;;4978640;28;20069;-78
2022/03/10 00:53:45;;;;;;;8.25;7.43;;;;;;;;;;4978196;28;20389;-78
2022/03/10 00:56:10;;;;;;;9.10;6.75;;;;;;;;;;4978236;28;20412;-78
2022/03/10 00:58:36;;;;;;;8.27;7.20;;;;;;;;;;4994593;28;20113;-78
2022/03/10 01:01:01;;;;;;;8.27;6.90;;;;;;;;;;4978124;28;20046;-78
2022/03/10 01:03:27;;;;;;;8.57;7.25;;;;;;;;;;4994269;28;20108;-78
2022/03/10 01:05:52;;;;;;;8.38;7.35;;;;;;;;;;4994269;28;20042;-78
2022/03/10 01:08:17;;;;;;;8.38;6.30;;;;;;;;;;4993976;28;20042;-78
2022/03/10 01:10:43;;;;;;;9.05;7.47;;;;;;;;;;4993801;28;20464;-78
2022/03/10 01:13:16;;;;;;;8.52;7.30;;;;;;;;;;4962007;28;20034;-78
2022/03/10 01:15:42;;;;;;;9.52;7.20;;;;;;;;;;4994078;28;20046;-78
2022/03/10 01:18:08;;;;;;;8.73;6.97;;;;;;;;;;4993748;28;20414;-78
2022/03/10 01:20:33;;;;;;;8.05;7.07;;;;;;;;;;4994040;28;20060;-79
2022/03/10 01:22:59;;;;;;;8.80;6.78;;;;;;;;;;4977627;28;20477;-78
2022/03/10 01:25:24;;;;;;;8.93;7.18;;;;;;;;;;4977347;28;20096;-78
2022/03/10 01:27:50;;;;;;;9.68;7.18;;;;;;;;;;4977730;28;20030;-78
2022/03/10 01:30:15;;;;;;;7.93;7.05;;;;;;;;;;4993875;28;20038;-78
2022/03/10 01:32:41;;;;;;;9.43;7.32;;;;;;;;;;4993755;28;20513;-78
2022/03/10 01:35:06;;;;;;;8.48;7.13;;;;;;;;;;4993814;28;20042;-78
2022/03/10 01:37:36;;;;;;;9.07;6.78;;;;;;;;;;4992045;28;20046;-78
2022/03/10 01:40:03;;;;;;;8.88;6.85;;;;;;;;;;4993535;28;20133;-79
2022/03/10 01:42:29;;;;;;;8.73;7.38;;;;;;;;;;4993640;28;20038;-78
2022/03/10 01:44:54;;;;;;;8.70;6.95;;;;;;;;;;4977087;28;20050;-78
2022/03/10 01:47:20;;;;;;;9.35;7.03;;;;;;;;;;4976918;28;20042;-78
2022/03/10 01:49:45;;;;;;;9.82;7.40;;;;;;;;;;4977512;28;20125;-78
2022/03/10 01:52:11;;;;;;;8.35;6.80;;;;;;;;;;4976933;28;20106;-78
2022/03/10 01:54:36;;;;;;;8.63;6.88;;;;;;;;;;4976702;28;20058;-78
2022/03/10 01:57:02;;;;;;;7.82;6.75;;;;;;;;;;4984116;28;20393;-78
2022/03/10 01:59:28;;;;;;;9.13;7.20;;;;;;;;;;5009535;28;20066;-78
2022/03/10 02:01:53;;;;;;;8.82;7.03;;;;;;;;;;4977118;28;20458;-79
2022/03/10 02:04:19;;;;;;;8.65;6.90;;;;;;;;;;4993537;28;20041;-79
2022/03/10 02:06:44;;;;;;;8.77;6.85;;;;;;;;;;4993143;28;20122;-78
2022/03/10 02:11:54;;;;;;;7.85;6.80;;;;;;;;;;4995696;28;20500;-78
2022/03/10 02:17:22;;;;;;;8.63;7.00;;;;;;;;;;4993289;28;20034;-78
2022/03/10 02:19:51;;;;;;;7.70;6.88;;;;;;;;;;4979338;28;20042;-78
2022/03/10 02:22:17;;;;;;;8.70;6.80;;;;;;;;;;4992826;28;20043;-78
2022/03/10 02:24:44;;;;;;;7.63;6.43;;;;;;;;;;4976178;28;20034;-78
2022/03/10 02:27:13;;;;;;;7.38;6.18;;;;;;;;;;4992872;28;20065;-79
2022/03/10 02:29:38;;;;;;;7.93;6.60;;;;;;;;;;5009236;28;20104;-78
2022/03/10 02:32:04;;;;;;;8.57;6.72;;;;;;;;;;4992681;28;20505;-78
2022/03/10 02:34:29;;;;;;;8.85;7.63;;;;;;;;;;4993045;28;20030;-79
2022/03/10 02:36:55;;;;;;;7.57;6.45;;;;;;;;;;5008667;28;20058;-78
2022/03/10 02:39:20;;;;;;;7.93;6.47;;;;;;;;;;4992465;28;20065;-78
2022/03/10 02:41:45;;;;;;;8.18;6.65;;;;;;;;;;4976329;28;20075;-79
2022/03/10 02:44:11;;;;;;;8.95;7.05;;;;;;;;;;4992376;28;20418;-77
2022/03/10 02:46:36;;;;;;;7.15;6.15;;;;;;;;;;4992159;28;20034;-78
2022/03/10 02:49:02;;;;;;;8.57;7.68;;;;;;;;;;4975801;28;20041;-78
2022/03/10 02:51:27;;;;;;;7.50;6.45;;;;;;;;;;4975784;28;20034;-78
2022/03/10 02:53:53;;;;;;;7.03;6.20;;;;;;;;;;4975641;28;20046;-78
2022/03/10 02:56:18;;;;;;;7.65;6.22;;;;;;;;;;4977125;28;20050;-78
2022/03/10 02:58:46;;;;;;;8.80;7.00;;;;;;;;;;4992453;28;20050;-78
2022/03/10 03:01:11;;;;;;;8.60;6.85;;;;;;;;;;4992085;28;20045;-78
2022/03/10 03:03:38;;;;;;;8.60;7.45;;;;;;;;;;4992573;28;20039;-78
2022/03/10 03:06:03;;;;;;;7.72;6.78;;;;;;;;;;4991875;28;20045;-78
2022/03/10 03:08:29;;;;;;;7.38;6.53;;;;;;;;;;4991666;28;20046;-78
2022/03/10 03:10:54;;;;;;;8.35;6.70;;;;;;;;;;4975785;28;20088;-78
2022/03/10 03:13:19;;;;;;;9.32;8.10;;;;;;;;;;4991931;28;20413;-78
2022/03/10 03:15:45;;;;;;;8.65;7.35;;;;;;;;;;4975355;28;20065;-78
2022/03/10 03:18:10;;;;;;;8.73;7.03;;;;;;;;;;4991409;28;20061;-78
2022/03/10 03:20:36;;;;;;;7.57;6.65;;;;;;;;;;4973751;28;20041;-78
2022/03/10 03:23:01;;;;;;;9.18;7.45;;;;;;;;;;4989345;28;20212;-78
2022/03/10 03:25:27;;;;;;;7.63;6.75;;;;;;;;;;4989769;28;20061;-78
2022/03/10 03:27:52;;;;;;;7.75;6.78;;;;;;;;;;4989903;28;20109;-78
2022/03/10 03:30:18;;;;;;;8.00;6.43;;;;;;;;;;4989834;28;20045;-78
2022/03/10 03:32:43;;;;;;;7.88;6.72;;;;;;;;;;4990029;28;20457;-79
2022/03/10 03:35:10;;;;;;;7.95;6.45;;;;;;;;;;4974581;28;20117;-78
2022/03/10 03:37:35;;;;;;;8.13;6.47;;;;;;;;;;4991323;28;20053;-78
2022/03/10 03:40:01;;;;;;;8.35;6.85;;;;;;;;;;4975172;28;20035;-78
2022/03/10 03:42:32;;;;;;;7.68;6.72;;;;;;;;;;4991617;28;20045;-78
2022/03/10 03:44:58;;;;;;;7.50;6.43;;;;;;;;;;4992248;28;20064;-78
2022/03/10 03:47:23;;;;;;;7.05;6.30;;;;;;;;;;4974988;28;20517;-78
2022/03/10 03:49:49;;;;;;;8.20;6.78;;;;;;;;;;4974917;28;20061;-78
2022/03/10 03:52:14;;;;;;;7.60;6.90;;;;;;;;;;4975311;28;20117;-78
2022/03/10 03:54:39;;;;;;;7.85;7.05;;;;;;;;;;4974791;28;20046;-79
2022/03/10 03:57:05;;;;;;;8.68;7.40;;;;;;;;;;4982628;28;20420;-78
2022/03/10 03:59:30;;;;;;;6.80;6.10;;;;;;;;;;5007432;28;20116;-78
2022/03/10 04:01:56;;;;;;;7.13;5.93;;;;;;;;;;4990525;28;20448;-78
2022/03/10 04:04:22;;;;;;;7.18;6.38;;;;;;;;;;4990657;28;20529;-78
2022/03/10 04:06:48;;;;;;;6.78;6.07;;;;;;;;;;4974782;28;20512;-78
2022/03/10 04:09:14;;;;;;;9.43;7.20;;;;;;;;;;4991391;28;20042;-78
2022/03/10 04:11:39;;;;;;;7.50;6.53;;;;;;;;;;4975091;28;20505;-78
2022/03/10 04:14:04;;;;;;;8.20;7.20;;;;;;;;;;4990872;28;20121;-78
2022/03/10 04:16:30;;;;;;;9.27;6.68;;;;;;;;;;4974757;28;20412;-78
2022/03/10 04:18:55;;;;;;;6.65;5.95;;;;;;;;;;4991094;28;20041;-78
2022/03/10 04:21:21;;;;;;;8.05;6.35;;;;;;;;;;4974715;28;20034;-78
2022/03/10 04:23:46;;;;;;;7.60;6.45;;;;;;;;;;4974339;28;20125;-78
2022/03/10 04:26:12;;;;;;;7.38;6.45;;;;;;;;;;4990897;28;20413;-78
2022/03/10 04:28:37;;;;;;;7.97;6.72;;;;;;;;;;4990970;28;20042;-79
2022/03/10 04:31:03;;;;;;;8.63;6.30;;;;;;;;;;4990913;28;20061;-78
2022/03/10 04:33:28;;;;;;;9.15;7.22;;;;;;;;;;4990595;28;20072;-78
2022/03/10 04:35:55;;;;;;;8.90;6.78;;;;;;;;;;5006482;28;20100;-78
2022/03/10 04:38:20;;;;;;;7.82;6.35;;;;;;;;;;4974428;28;20073;-79
2022/03/10 04:40:46;;;;;;;7.82;6.25;;;;;;;;;;4990932;28;20038;-78
2022/03/10 04:43:12;;;;;;;7.82;6.85;;;;;;;;;;4990881;28;20084;-78
2022/03/10 04:45:38;;;;;;;6.55;5.80;;;;;;;;;;4974746;28;20105;-78
2022/03/10 04:48:06;;;;;;;7.75;6.72;;;;;;;;;;4974312;28;20038;-78
2022/03/10 04:50:32;;;;;;;8.32;7.20;;;;;;;;;;4990711;28;20409;-78
2022/03/10 04:52:57;;;;;;;6.75;6.00;;;;;;;;;;4974551;28;20038;-78
2022/03/10 04:55:23;;;;;;;7.93;6.85;;;;;;;;;;4974419;28;20042;-78
2022/03/10 04:57:48;;;;;;;6.90;5.80;;;;;;;;;;5003952;28;20408;-78
2022/03/10 05:00:18;;;;;;;7.95;6.60;;;;;;;;;;4977646;28;20033;-78
2022/03/10 05:02:44;;;;;;;7.53;6.05;;;;;;;;;;5010703;28;20030;-78
2022/03/10 05:05:11;;;;;;;7.70;6.00;;;;;;;;;;5010217;28;20041;-78
2022/03/10 05:07:36;;;;;;;8.75;6.82;;;;;;;;;;5009676;28;20042;-78
2022/03/10 05:10:02;;;;;;;8.68;6.57;;;;;;;;;;4993594;28;20112;-78
2022/03/10 05:12:27;;;;;;;8.25;6.38;;;;;;;;;;5011943;28;20175;-78
2022/03/10 05:14:53;;;;;;;6.32;5.72;;;;;;;;;;5013715;28;20124;-78
2022/03/10 05:17:18;;;;;;;6.97;6.00;;;;;;;;;;4980688;28;20041;-78
2022/03/10 05:19:43;;;;;;;7.53;6.40;;;;;;;;;;5030232;28;20037;-78
2022/03/10 05:22:09;;;;;;;7.47;6.10;;;;;;;;;;4997262;28;20408;-78
2022/03/10 05:24:35;;;;;;;8.30;6.90;;;;;;;;;;5013239;28;20467;-78
2022/03/10 05:27:01;;;;;;;7.75;6.72;;;;;;;;;;4997420;28;20042;-78
2022/03/10 05:29:26;;;;;;;9.73;6.65;;;;;;;;;;4997374;28;20543;-78
2022/03/10 05:31:52;;;;;;;7.72;6.78;;;;;;;;;;4997138;28;20065;-78
2022/03/10 05:34:17;;;;;;;7.18;6.10;;;;;;;;;;4997109;28;21272;-78
2022/03/10 05:36:42;;;;;;;7.95;6.90;;;;;;;;;;4997026;28;20125;-78
2022/03/10 05:39:08;;;;;;;7.30;6.55;;;;;;;;;;4996665;28;20046;-78
2022/03/10 05:41:33;;;;;;;6.88;6.15;;;;;;;;;;4997512;28;20404;-78
2022/03/10 05:43:59;;;;;;;7.32;6.38;;;;;;;;;;4993294;28;20126;-78
2022/03/10 05:46:25;;;;;;;8.27;6.60;;;;;;;;;;4976865;28;20035;-78
2022/03/10 05:48:50;;;;;;;8.40;6.72;;;;;;;;;;4977277;28;20113;-78
2022/03/10 05:51:16;;;;;;;8.75;6.80;;;;;;;;;;4977269;28;20038;-78
2022/03/10 05:53:41;;;;;;;9.15;7.10;;;;;;;;;;4977504;28;20115;-78
2022/03/10 05:56:07;;;;;;;8.75;6.50;;;;;;;;;;4977380;28;20042;-78
2022/03/10 05:58:32;;;;;;;8.52;6.30;;;;;;;;;;5012910;28;20088;-78
2022/03/10 06:00:58;;;;;;;7.82;7.05;;;;;;;;;;4996321;28;20416;-78
2022/03/10 06:03:24;;;;;;;8.25;6.07;;;;;;;;;;5012896;28;20045;-78
2022/03/10 06:05:49;;;;;;;8.13;5.97;;;;;;;;;;5012577;28;20073;-78
2022/03/10 06:08:14;;;;;;;6.78;6.07;;;;;;;;;;5012443;28;20421;-78
2022/03/10 06:10:40;;;;;;;6.35;5.75;;;;;;;;;;5012862;28;20053;-78
2022/03/10 06:13:06;;;;;;;7.10;5.78;;;;;;;;;;5012907;28;20107;-78
2022/03/10 06:15:31;;;;;;;8.05;6.50;;;;;;;;;;4995983;28;20108;-78
2022/03/10 06:17:57;;;;;;;6.82;6.10;;;;;;;;;;4995869;28;20030;-77
2022/03/10 06:20:22;;;;;;;7.45;6.47;;;;;;;;;;5012589;28;20041;-78
2022/03/10 06:22:48;;;;;;;7.70;6.82;;;;;;;;;;5011621;28;20405;-77
2022/03/10 06:25:13;;;;;;;6.85;6.13;;;;;;;;;;4985795;28;20053;-78
2022/03/10 06:27:39;;;;;;;10.65;7.18;;;;;;;;;;4976931;28;20392;-78
2022/03/10 06:30:05;;;;;;;10.07;7.15;;;;;;;;;;4976637;28;20046;-78
2022/03/10 06:32:30;;;;;;;7.43;6.47;;;;;;;;;;4976368;28;20042;-77
2022/03/10 06:34:57;;;;;;;7.88;5.80;;;;;;;;;;5000333;28;20038;-79
2022/03/10 06:37:23;;;;;;;8.00;6.28;;;;;;;;;;4995845;28;20096;-77
2022/03/10 06:39:48;;;;;;;7.20;6.05;;;;;;;;;;4996102;28;20041;-77
2022/03/10 06:42:14;;;;;;;9.40;6.22;;;;;;;;;;4995952;28;20045;-77
2022/03/10 06:44:39;;;;;;;9.55;5.80;;;;;;;;;;5008565;28;20041;-77
2022/03/10 06:47:05;;;;;;;10.15;6.68;;;;;;;;;;4976115;28;20125;-79
2022/03/10 06:49:31;;;;;;;11.25;6.72;;;;;;;;;;4976967;28;20043;-79
2022/03/10 06:51:56;;;;;;;8.15;5.97;;;;;;;;;;4992133;28;20034;-78
2022/03/10 06:54:22;;;;;;;9.55;6.88;;;;;;;;;;4975871;28;20038;-78
2022/03/10 06:56:47;;;;;;;10.13;6.15;;;;;;;;;;4981166;28;20030;-78
2022/03/10 06:59:13;;;;;;;8.68;5.53;;;;;;;;;;4978866;28;20038;-78
2022/03/10 07:01:38;;;;;;;9.95;5.90;;;;;;;;;;5011772;28;20096;-78
2022/03/10 07:04:04;;;;;;;11.57;6.30;;;;;;;;;;5011600;28;20472;-78
2022/03/10 07:06:29;;;;;;;11.65;6.25;;;;;;;;;;5011487;28;20852;-78
2022/03/10 07:08:55;;;;;;;8.35;5.60;;;;;;;;;;5011628;28;20041;-78
2022/03/10 07:11:21;;;;;;;12.57;6.28;;;;;;;;;;4995187;28;20044;-78
2022/03/10 07:13:46;;;;;;;10.38;5.88;;;;;;;;;;4995070;28;20041;-78
2022/03/10 07:16:12;;;;;;;9.82;6.03;;;;;;;;;;5011588;28;20140;-78
2022/03/10 07:18:39;;;;;;;9.63;6.45;;;;;;;;;;4979632;28;20172;-78
2022/03/10 07:21:04;;;;;;;9.15;5.30;;;;;;;;;;5011263;28;20037;-79
2022/03/10 07:23:30;;;;;;;9.00;5.78;;;;;;;;;;5011399;28;20045;-77
2022/03/10 07:25:56;;;;;;;11.90;6.85;;;;;;;;;;5011350;28;20041;-78
2022/03/10 07:28:22;;;;;;;11.80;6.57;;;;;;;;;;4994455;28;20061;-77
2022/03/10 07:30:48;;;;;;;8.73;5.30;;;;;;;;;;4994984;28;20025;-78
2022/03/10 07:33:13;;;;;;;12.82;6.07;;;;;;;;;;4994891;28;20034;-78
2022/03/10 07:35:39;;;;;;;10.63;5.88;;;;;;;;;;4994630;28;20037;-78
2022/03/10 07:38:04;;;;;;;10.57;5.25;;;;;;;;;;4994415;28;20052;-78
2022/03/10 07:40:30;;;;;;;9.75;5.40;;;;;;;;;;4994857;28;20060;-78
2022/03/10 07:42:55;;;;;;;12.93;5.97;;;;;;;;;;4994438;28;20045;-78
2022/03/10 07:45:21;;;;;;;13.82;6.20;;;;;;;;;;4994865;28;20056;-77
2022/03/10 07:47:46;;;;;;;13.52;7.03;;;;;;;;;;4978269;28;20374;-78
2022/03/10 07:50:12;;;;;;;11.90;6.45;;;;;;;;;;4994829;28;20038;-77
2022/03/10 07:52:37;;;;;;;9.60;6.35;;;;;;;;;;4994288;28;20048;-77
2022/03/10 07:55:05;;;;;;;11.38;7.35;;;;;;;;;;4978337;28;20138;-78
2022/03/10 07:57:31;;;;;;;9.20;5.90;;;;;;;;;;5011070;28;20067;-77
2022/03/10 07:59:56;;;;;;;9.57;6.60;;;;;;;;;;5011207;28;20493;-78
2022/03/10 08:02:22;;;;;;;9.95;6.65;;;;;;;;;;5010730;28;20854;-77
2022/03/10 08:04:48;;;;;;;13.40;6.55;;;;;;;;;;4994571;28;20038;-78
2022/03/10 08:07:13;;;;;;;8.85;6.65;;;;;;;;;;5010300;28;20576;-77
2022/03/10 08:09:38;;;;;;;11.32;6.45;;;;;;;;;;5010324;28;20069;-78
2022/03/10 08:12:04;;;;;;;9.82;6.32;;;;;;;;;;5027033;28;20051;-77
2022/03/10 08:14:30;;;;;;;10.13;6.82;;;;;;;;;;5027282;28;20186;-78
2022/03/10 08:16:55;;;;;;;10.43;7.00;;;;;;;;;;5010397;28;20038;-78
2022/03/10 08:19:21;;;;;;;9.43;6.25;;;;;;;;;;5010617;28;20100;-78
2022/03/10 08:21:47;;;;;;;8.55;6.70;;;;;;;;;;5010603;28;20069;-78
2022/03/10 08:24:13;;;;;;;11.70;7.05;;;;;;;;;;4998352;28;20049;-78
2022/03/10 08:26:39;;;;;;;12.30;7.40;;;;;;;;;;4962107;28;20022;-78
2022/03/10 08:29:05;;;;;;;11.93;7.15;;;;;;;;;;4978383;28;20042;-78
2022/03/10 08:31:30;;;;;;;9.93;7.32;;;;;;;;;;5010433;28;20048;-78
2022/03/10 08:33:56;;;;;;;11.38;6.70;;;;;;;;;;4977868;28;20125;-78
2022/03/10 08:36:21;;;;;;;10.75;8.18;;;;;;;;;;4973687;28;20212;-78
2022/03/10 08:38:46;;;;;;;10.25;6.97;;;;;;;;;;5006430;28;20175;-78
2022/03/10 08:41:12;;;;;;;9.40;6.82;;;;;;;;;;4978274;28;20447;-78
2022/03/10 08:43:37;;;;;;;10.95;6.60;;;;;;;;;;4991643;28;20646;-78
2022/03/10 08:46:03;;;;;;;9.73;7.85;;;;;;;;;;4987320;28;20046;-78
2022/03/10 08:48:31;;;;;;;10.55;7.43;;;;;;;;;;4999031;28;20034;-77
2022/03/10 08:51:00;;;;;;;10.00;7.63;;;;;;;;;;5009799;28;20042;-78
2022/03/10 08:53:26;;;;;;;16.27;8.68;;;;;;;;;;4992973;28;20046;-78
2022/03/10 08:55:51;;;;;;;13.95;8.57;;;;;;;;;;5008570;28;20049;-78
2022/03/10 08:58:18;;;;;;;12.05;7.57;;;;;;;;;;4993130;28;20057;-78
2022/03/10 09:00:43;;;;;;;11.60;8.45;;;;;;;;;;4995099;28;20168;-77
2022/03/10 09:03:09;;;;;;;9.57;7.90;;;;;;;;;;5013034;28;20037;-77
2022/03/10 09:05:36;;;;;;;15.85;9.02;;;;;;;;;;5008125;28;20048;-77
2022/03/10 09:08:01;;;;;;;11.10;8.40;;;;;;;;;;4996558;28;20050;-77
2022/03/10 09:10:27;;;;;;;13.05;7.93;;;;;;;;;;4997005;28;20034;-77
2022/03/10 09:12:52;;;;;;;15.90;8.45;;;;;;;;;;4996981;28;20516;-77
2022/03/10 09:15:18;;;;;;;10.50;8.70;;;;;;;;;;4996772;28;20124;-78
2022/03/10 09:17:43;;;;;;;12.85;8.88;;;;;;;;;;5030589;28;20038;-79
2022/03/10 09:20:13;;;;;;;10.35;8.68;;;;;;;;;;5013782;28;20033;-77
2022/03/10 09:22:38;;;;;;;11.82;8.60;;;;;;;;;;5028763;28;20038;-77
2022/03/10 09:25:08;;;;;;;11.85;8.35;;;;;;;;;;4997368;28;20462;-77
2022/03/10 09:27:34;;;;;;;13.70;8.35;;;;;;;;;;5013431;28;20118;-77
2022/03/10 09:29:59;;;;;;;13.45;7.82;;;;;;;;;;4992241;28;20045;-77
2022/03/10 09:32:25;;;;;;;10.18;7.82;;;;;;;;;;5026056;28;20042;-77
2022/03/10 09:34:50;;;;;;;10.70;7.60;;;;;;;;;;5012499;28;20057;-77
2022/03/10 09:37:15;;;;;;;12.80;9.13;;;;;;;;;;4993975;28;20046;-77
2022/03/10 09:39:41;;;;;;;10.35;8.05;;;;;;;;;;4996994;28;20042;-77
2022/03/10 09:42:06;;;;;;;12.38;7.47;;;;;;;;;;5014440;28;20121;-77
2022/03/10 09:44:32;;;;;;;11.35;7.60;;;;;;;;;;4993672;28;20508;-77
2022/03/10 09:47:02;;;;;;;12.05;7.53;;;;;;;;;;4993579;28;20034;-77
2022/03/10 09:49:27;;;;;;;9.82;8.00;;;;;;;;;;4977158;28;20038;-77
2022/03/10 09:51:53;;;;;;;11.27;7.65;;;;;;;;;;4993545;28;20050;-77
2022/03/10 09:54:18;;;;;;;12.90;7.68;;;;;;;;;;4976375;28;20046;-77
2022/03/10 09:56:44;;;;;;;10.70;7.30;;;;;;;;;;4997528;28;20540;-77
2022/03/10 09:59:10;;;;;;;9.23;7.50;;;;;;;;;;5008635;28;20105;-77
2022/03/10 10:01:35;;;;;;;12.73;6.95;;;;;;;;;;4993355;28;20053;-77
2022/03/10 10:04:00;;;;;;;8.80;7.20;;;;;;;;;;4993141;28;20038;-78
2022/03/10 10:06:26;;;;;;;10.35;6.75;;;;;;;;;;5008886;28;20562;-77
2022/03/10 10:08:55;;;;;;;8.70;7.13;;;;;;;;;;4993248;28;20471;-77
2022/03/10 10:11:34;;;;;;;9.23;6.63;;;;;;;;;;4993177;28;20540;-77
2022/03/10 10:14:00;;;;;;;9.60;6.65;;;;;;;;;;4993344;28;20118;-77
2022/03/10 10:16:25;;;;;;;9.02;7.03;;;;;;;;;;4976760;28;20116;-77
2022/03/10 10:18:55;;;;;;;7.82;6.65;;;;;;;;;;4993386;28;20030;-77
2022/03/10 10:21:21;;;;;;;7.68;6.45;;;;;;;;;;4992853;28;20161;-78
2022/03/10 10:23:47;;;;;;;8.05;6.00;;;;;;;;;;4992651;28;20066;-78
2022/03/10 10:26:12;;;;;;;9.13;6.30;;;;;;;;;;4993191;28;20070;-78
2022/03/10 10:28:40;;;;;;;9.05;6.63;;;;;;;;;;4993083;28;20110;-78
2022/03/10 10:31:07;;;;;;;7.75;6.50;;;;;;;;;;4992391;28;20475;-78
2022/03/10 10:33:33;;;;;;;8.30;6.00;;;;;;;;;;5007844;28;20449;-78
2022/03/10 10:36:24;;;;;;;9.80;7.32;;;;;;;;;;4991645;28;20049;-78
2022/03/10 10:38:54;;;;;;;7.57;6.57;;;;;;;;;;4992553;28;20416;-78
2022/03/10 10:41:30;;;;;;;10.40;8.02;;;;;;;;;;4992648;28;20070;-78
2022/03/10 10:44:00;;;;;;;9.45;7.93;;;;;;;;;;4992559;28;20030;-78
2022/03/10 10:46:29;;;;;;;8.82;6.85;;;;;;;;;;4992200;28;20053;-78
2022/03/10 10:48:55;;;;;;;8.35;6.88;;;;;;;;;;4976431;28;20038;-78
2022/03/10 10:51:31;;;;;;;8.70;7.00;;;;;;;;;;4976096;28;20097;-78
2022/03/10 10:53:59;;;;;;;7.57;6.10;;;;;;;;;;4976711;28;20053;-78
2022/03/10 10:56:25;;;;;;;8.07;5.85;;;;;;;;;;4978112;28;20045;-78
2022/03/10 10:58:52;;;;;;;9.25;6.28;;;;;;;;;;5008672;28;20154;-78
2022/03/10 11:01:26;;;;;;;8.30;6.28;;;;;;;;;;5008766;28;20069;-78
2022/03/10 11:03:52;;;;;;;8.63;6.50;;;;;;;;;;5008287;28;20497;-78
2022/03/10 11:06:17;;;;;;;8.38;6.30;;;;;;;;;;4991817;28;20042;-78
2022/03/10 11:08:43;;;;;;;8.70;6.75;;;;;;;;;;4991965;28;20047;-78
2022/03/10 11:11:08;;;;;;;8.68;6.65;;;;;;;;;;4992120;28;20050;-78
2022/03/10 11:13:33;;;;;;;9.13;6.25;;;;;;;;;;4975585;28;20050;-78
2022/03/10 11:15:59;;;;;;;8.60;6.32;;;;;;;;;;4991575;28;20493;-78
2022/03/10 11:18:25;;;;;;;8.18;6.55;;;;;;;;;;4991766;28;20034;-78
2022/03/10 11:20:54;;;;;;;8.43;6.60;;;;;;;;;;4991746;28;20515;-78
2022/03/10 11:23:37;;;;;;;7.40;6.22;;;;;;;;;;4992323;28;20022;-78
2022/03/10 11:26:24;;;;;;;8.77;6.43;;;;;;;;;;4975623;28;20085;-78
2022/03/10 11:28:50;;;;;;;8.80;6.18;;;;;;;;;;4976273;28;20038;-78
2022/03/10 11:31:15;;;;;;;9.07;6.40;;;;;;;;;;4975947;28;20049;-78
2022/03/10 11:33:41;;;;;;;8.13;6.00;;;;;;;;;;4959325;28;20038;-78
2022/03/10 11:36:29;;;;;;;9.77;6.88;;;;;;;;;;4991356;28;20048;-78
2022/03/10 11:39:01;;;;;;;10.02;7.45;;;;;;;;;;5011083;28;20073;-78
2022/03/10 11:41:28;;;;;;;9.15;6.40;;;;;;;;;;4995831;28;20089;-78
2022/03/10 11:43:58;;;;;;;9.45;6.25;;;;;;;;;;4978797;28;20038;-78
2022/03/10 11:46:26;;;;;;;8.00;6.50;;;;;;;;;;5010836;28;20049;-79
2022/03/10 11:49:04;;;;;;;8.75;6.38;;;;;;;;;;5011089;28;20050;-79
2022/03/10 11:51:42;;;;;;;8.40;6.00;;;;;;;;;;5010968;28;20080;-79
2022/03/10 11:54:08;;;;;;;9.30;6.88;;;;;;;;;;5027532;28;20045;-79
2022/03/10 11:56:55;;;;;;;8.68;6.35;;;;;;;;;;4994831;28;20105;-78
2022/03/10 11:59:23;;;;;;;9.65;6.30;;;;;;;;;;5000662;28;20118;-78
2022/03/10 12:01:49;;;;;;;7.38;5.65;;;;;;;;;;5027360;28;20034;-78
2022/03/10 12:04:17;;;;;;;8.57;6.28;;;;;;;;;;5011102;28;20052;-79
2022/03/10 12:06:56;;;;;;;7.47;5.88;;;;;;;;;;5010877;28;20501;-78
2022/03/10 12:09:33;;;;;;;7.32;5.88;;;;;;;;;;4999265;28;20050;-79
2022/03/10 12:12:14;;;;;;;8.32;5.75;;;;;;;;;;5010967;28;20092;-78
2022/03/10 12:14:39;;;;;;;7.28;6.13;;;;;;;;;;5027345;28;20133;-79
2022/03/10 12:17:05;;;;;;;8.02;5.60;;;;;;;;;;5010255;28;20029;-77
2022/03/10 12:20:10;;;;;;;8.50;6.18;;;;;;;;;;5010838;28;20046;-77
2022/03/10 12:22:36;;;;;;;7.13;5.15;;;;;;;;;;5024913;28;20080;-77
2022/03/10 12:25:21;;;;;;;7.82;5.68;;;;;;;;;;4994092;28;20045;-77
2022/03/10 12:27:53;;;;;;;7.55;5.57;;;;;;;;;;4994382;28;20511;-78
2022/03/10 12:30:25;;;;;;;7.53;5.82;;;;;;;;;;5010759;28;20092;-78
2022/03/10 12:32:52;;;;;;;7.15;5.07;;;;;;;;;;4994716;28;20072;-78
2022/03/10 12:35:24;;;;;;;6.90;5.53;;;;;;;;;;4993894;28;20575;-78
2022/03/10 12:37:50;;;;;;;8.13;5.55;;;;;;;;;;4994498;28;20038;-78
2022/03/10 12:40:21;;;;;;;5.95;4.63;;;;;;;;;;4994120;28;20423;-78
2022/03/10 12:42:47;;;;;;;6.53;4.90;;;;;;;;;;4995166;28;20069;-78
2022/03/10 12:45:13;;;;;;;6.85;4.55;;;;;;;;;;4990547;28;20514;-78
2022/03/10 12:47:39;;;;;;;5.30;4.55;;;;;;;;;;4974273;28;20401;-78
2022/03/10 12:50:04;;;;;;;5.05;4.05;;;;;;;;;;4974738;28;20043;-78
2022/03/10 12:52:30;;;;;;;6.38;4.65;;;;;;;;;;4974522;28;20056;-78
2022/03/10 12:54:56;;;;;;;6.40;4.95;;;;;;;;;;4974466;28;20058;-78
2022/03/10 12:57:23;;;;;;;6.10;4.47;;;;;;;;;;5000263;28;20445;-78
2022/03/10 12:59:48;;;;;;;5.63;4.43;;;;;;;;;;4990609;28;20046;-78
2022/03/10 13:02:17;;;;;;;6.07;4.07;;;;;;;;;;4990718;28;20097;-78
2022/03/10 13:04:57;;;;;;;5.82;4.70;;;;;;;;;;4990520;28;20069;-78
2022/03/10 13:07:24;;;;;;;6.85;4.85;;;;;;;;;;4974755;28;20070;-78
2022/03/10 13:09:53;;;;;;;6.07;4.53;;;;;;;;;;4990675;28;20096;-77
2022/03/10 13:12:29;;;;;;;5.68;4.18;;;;;;;;;;5007305;28;20042;-78
2022/03/10 13:14:55;;;;;;;5.47;4.32;;;;;;;;;;4990383;28;20053;-78
2022/03/10 13:17:41;;;;;;;6.07;4.22;;;;;;;;;;4974540;28;20070;-78
2022/03/10 13:20:10;;;;;;;5.88;4.57;;;;;;;;;;4958479;28;20539;-78
2022/03/10 13:22:35;;;;;;;6.50;4.70;;;;;;;;;;5008195;28;20026;-78
2022/03/10 13:25:01;;;;;;;7.00;4.57;;;;;;;;;;4994199;28;20057;-78
2022/03/10 13:27:27;;;;;;;6.07;4.30;;;;;;;;;;4993917;28;20036;-78
2022/03/10 13:29:53;;;;;;;5.57;4.13;;;;;;;;;;4993399;28;20045;-77
2022/03/10 13:32:22;;;;;;;7.00;4.50;;;;;;;;;;4993617;28;20030;-78
2022/03/10 13:34:47;;;;;;;4.57;3.60;;;;;;;;;;4997488;28;20088;-78
2022/03/10 13:37:13;;;;;;;6.80;4.32;;;;;;;;;;4996700;28;20045;-78
2022/03/10 13:39:40;;;;;;;6.18;4.60;;;;;;;;;;4997101;28;20045;-78
2022/03/10 13:42:08;;;;;;;7.00;4.72;;;;;;;;;;4997371;28;20037;-78
2022/03/10 13:44:34;;;;;;;7.90;5.05;;;;;;;;;;4993469;28;20408;-78
2022/03/10 13:47:07;;;;;;;7.50;4.40;;;;;;;;;;4961607;28;20034;-78
2022/03/10 13:49:46;;;;;;;5.97;3.95;;;;;;;;;;4977232;28;20068;-78
2022/03/10 13:52:13;;;;;;;6.88;4.93;;;;;;;;;;4977550;28;20046;-78
2022/03/10 13:54:38;;;;;;;5.85;4.60;;;;;;;;;;4977789;28;20046;-78
2022/03/10 13:57:04;;;;;;;4.93;3.72;;;;;;;;;;4984823;28;20030;-78
2022/03/10 13:59:30;;;;;;;5.78;4.75;;;;;;;;;;4993075;28;20489;-78
2022/03/10 14:01:55;;;;;;;5.72;3.92;;;;;;;;;;4993613;28;20538;-78
2022/03/10 14:04:21;;;;;;;5.18;3.70;;;;;;;;;;4993762;28;20050;-78
2022/03/10 14:06:50;;;;;;;5.90;4.07;;;;;;;;;;4976758;28;20035;-78
2022/03/10 14:09:40;;;;;;;6.10;3.88;;;;;;;;;;4993412;28;20042;-78
2022/03/10 14:12:23;;;;;;;5.38;3.40;;;;;;;;;;4976960;28;20575;-78
2022/03/10 14:14:52;;;;;;;4.88;4.05;;;;;;;;;;4977381;28;20088;-78
2022/03/10 14:17:19;;;;;;;6.03;3.72;;;;;;;;;;4977199;28;20041;-78
2022/03/10 14:19:44;;;;;;;6.32;3.50;;;;;;;;;;4993242;28;20049;-78
2022/03/10 14:22:17;;;;;;;4.85;4.25;;;;;;;;;;4976831;28;20034;-78
2022/03/10 14:24:43;;;;;;;6.45;4.22;;;;;;;;;;4993101;28;20049;-78
2022/03/10 14:27:10;;;;;;;5.38;4.15;;;;;;;;;;4992783;28;20042;-78
2022/03/10 14:29:42;;;;;;;5.63;4.28;;;;;;;;;;4976854;28;20053;-78
2022/03/10 14:32:08;;;;;;;5.72;4.70;;;;;;;;;;4992129;28;20033;-78
2022/03/10 14:34:34;;;;;;;5.38;3.83;;;;;;;;;;4992181;28;20038;-78
2022/03/10 14:36:59;;;;;;;6.38;3.78;;;;;;;;;;4976571;28;20042;-78
2022/03/10 14:39:25;;;;;;;6.00;4.72;;;;;;;;;;5009125;28;20050;-78
2022/03/10 14:41:50;;;;;;;5.15;3.60;;;;;;;;;;4992774;28;20049;-78
2022/03/10 14:44:16;;;;;;;4.95;4.00;;;;;;;;;;4983566;28;20050;-78